Time;durP1;ratioP1;P1;durP2;ratioP2;P2;SDS_P1;SDS_P2;PMS_P1;PMS_P2;Temp;Humidity;BMP_temperature;BMP_pressure;BME280_temperature;BME280_humidity;BME280_pressure;Samples;Min_cycle;Max_cycle;Signal;HPM_P1;HPM_P2
2022/02/06 00:01:28;;;;;;;21.13;6.18;;;7.90;99.90;;;;;;5034907;28;20044;-74
2022/02/06 00:03:57;;;;;;;17.92;5.85;;;7.90;99.90;;;;;;5036204;28;20034;-74
2022/02/06 00:06:23;;;;;;;27.17;7.20;;;7.90;99.90;;;;;;5036186;28;20408;-74
2022/02/06 00:08:48;;;;;;;24.70;6.30;;;7.90;99.90;;;;;;5034674;28;20037;-74
2022/02/06 00:11:14;;;;;;;31.50;7.40;;;8.00;99.90;;;;;;5036688;28;20034;-74
2022/02/06 00:13:40;;;;;;;26.90;7.63;;;7.90;99.90;;;;;;5018678;28;20052;-74
2022/02/06 00:16:05;;;;;;;24.92;6.50;;;7.90;99.90;;;;;;5036257;28;20042;-74
2022/02/06 00:18:31;;;;;;;29.77;6.90;;;8.00;99.90;;;;;;5035950;28;20106;-74
2022/02/06 00:21:01;;;;;;;28.83;6.35;;;8.00;99.90;;;;;;5035836;28;20045;-74
2022/02/06 00:23:29;;;;;;;24.30;6.20;;;8.00;99.90;;;;;;5035290;28;20120;-73
2022/02/06 00:26:22;;;;;;;22.05;7.43;;;8.00;99.90;;;;;;5034821;28;20049;-74
2022/02/06 00:29:09;;;;;;;24.17;6.47;;;8.00;99.90;;;;;;5034545;28;20037;-74
2022/02/06 00:32:00;;;;;;;38.17;8.55;;;8.00;99.90;;;;;;5036465;28;20049;-74
2022/02/06 00:39:50;;;;;;;32.45;8.23;;;8.00;99.90;;;;;;5034622;28;20089;-74
2022/02/06 00:42:15;;;;;;;30.75;7.65;;;8.00;99.90;;;;;;5035434;28;20075;-74
2022/02/06 00:44:41;;;;;;;29.25;7.18;;;8.10;99.90;;;;;;5034447;28;20481;-74
2022/02/06 00:47:07;;;;;;;30.23;7.60;;;8.10;99.90;;;;;;5035514;28;20072;-74
2022/02/06 00:49:32;;;;;;;26.27;7.22;;;8.10;99.90;;;;;;5035649;28;20040;-74
2022/02/06 00:54:34;;;;;;;35.53;9.80;;;8.10;99.90;;;;;;5034839;28;20056;-74
2022/02/06 00:56:59;;;;;;;46.28;9.18;;;8.10;99.90;;;;;;5035816;28;20041;-74
2022/02/06 00:59:25;;;;;;;27.08;7.25;;;8.10;99.90;;;;;;5033591;28;20050;-74
2022/02/06 01:01:51;;;;;;;38.30;7.55;;;8.10;99.90;;;;;;5035151;28;20064;-74
2022/02/06 01:04:17;;;;;;;34.63;8.48;;;8.10;99.90;;;;;;5035518;28;20033;-74
2022/02/06 01:06:43;;;;;;;23.98;7.25;;;8.10;99.90;;;;;;5035569;28;20496;-74
2022/02/06 01:09:09;;;;;;;32.42;7.03;;;8.10;99.90;;;;;;5034166;28;20037;-74
2022/02/06 01:11:37;;;;;;;36.92;9.32;;;8.10;99.90;;;;;;5035480;28;20551;-74
2022/02/06 01:16:46;;;;;;;22.27;7.45;;;8.20;99.90;;;;;;5035302;28;20052;-74
2022/02/06 01:19:21;;;;;;;33.47;9.13;;;8.20;99.90;;;;;;5034929;28;20076;-74
2022/02/06 01:24:19;;;;;;;41.92;7.82;;;8.10;99.90;;;;;;5035119;28;20048;-74
2022/02/06 01:26:52;;;;;;;36.78;7.82;;;8.10;99.90;;;;;;5035309;28;20118;-74
2022/02/06 01:29:31;;;;;;;27.40;6.75;;;8.10;99.90;;;;;;5033032;28;20044;-74
2022/02/06 01:32:07;;;;;;;33.17;8.45;;;8.10;99.90;;;;;;5035265;28;20045;-74
2022/02/06 01:34:43;;;;;;;33.42;7.90;;;8.10;99.90;;;;;;5035216;28;20050;-74
2022/02/06 01:37:37;;;;;;;32.03;8.18;;;8.20;99.90;;;;;;5034684;28;20370;-74
2022/02/06 01:40:17;;;;;;;37.22;7.68;;;8.10;99.90;;;;;;5031799;28;20041;-74
2022/02/06 01:42:49;;;;;;;28.60;8.75;;;8.20;99.90;;;;;;5034268;28;20115;-74
2022/02/06 02:15:12;;;;;;;32.13;7.10;;;8.10;99.90;;;;;;5007761;28;20057;-74
2022/02/06 02:17:58;;;;;;;33.97;8.35;;;8.20;99.90;;;;;;5033759;28;20049;-75
2022/02/06 02:23:33;;;;;;;33.75;6.15;;;8.20;99.90;;;;;;5032433;28;20440;-73
2022/02/06 02:47:37;;;;;;;30.10;7.05;;;8.20;99.90;;;;;;5033098;28;20041;-74
2022/02/06 02:50:10;;;;;;;31.25;7.80;;;8.30;99.90;;;;;;5033712;28;20041;-74
2022/02/06 02:58:21;;;;;;;40.67;7.80;;;8.30;99.90;;;;;;5033216;28;20045;-74
2022/02/06 03:00:56;;;;;;;29.30;6.50;;;8.20;99.90;;;;;;5036113;28;20045;-74
2022/02/06 03:03:28;;;;;;;34.63;7.78;;;8.30;99.90;;;;;;5037830;28;20047;-74
2022/02/06 03:05:56;;;;;;;36.58;8.13;;;8.40;99.90;;;;;;5036295;28;20125;-74
2022/02/06 03:08:22;;;;;;;22.38;6.18;;;8.40;99.90;;;;;;5036959;28;20077;-74
2022/02/06 03:10:54;;;;;;;36.88;8.30;;;8.30;99.90;;;;;;5037229;28;20555;-74
2022/02/06 03:13:22;;;;;;;39.05;6.80;;;8.20;99.90;;;;;;5037277;28;20527;-74
2022/02/06 03:16:01;;;;;;;32.65;8.65;;;8.30;99.90;;;;;;5037861;28;20041;-74
2022/02/06 03:18:31;;;;;;;29.33;8.10;;;8.30;99.90;;;;;;5036451;28;20457;-74
2022/02/06 03:21:00;;;;;;;34.45;8.70;;;8.20;99.90;;;;;;5037722;28;20029;-74
2022/02/06 03:23:28;;;;;;;32.45;7.35;;;8.30;99.90;;;;;;5019735;28;20041;-74
2022/02/06 03:25:54;;;;;;;34.33;7.28;;;8.30;99.90;;;;;;5036920;28;20034;-74
2022/02/06 03:28:21;;;;;;;33.42;8.88;;;8.20;99.90;;;;;;5036402;28;20049;-74
2022/02/06 03:30:47;;;;;;;34.55;6.57;;;8.30;99.90;;;;;;5036855;28;20030;-74
2022/02/06 03:33:13;;;;;;;27.33;6.43;;;8.30;99.90;;;;;;5037510;28;20496;-74
2022/02/06 03:35:39;;;;;;;44.05;7.35;;;8.40;99.90;;;;;;5035837;28;20481;-74
2022/02/06 03:38:06;;;;;;;30.38;6.63;;;8.40;99.90;;;;;;5036651;28;20046;-74
2022/02/06 03:40:39;;;;;;;39.60;7.50;;;8.30;99.90;;;;;;5035769;28;20049;-74
2022/02/06 03:45:42;;;;;;;28.77;6.82;;;8.30;99.90;;;;;;5035657;28;20042;-74
2022/02/06 03:48:13;;;;;;;39.45;7.07;;;8.40;99.90;;;;;;5036565;28;20037;-74
2022/02/06 03:50:38;;;;;;;33.67;6.63;;;8.40;99.90;;;;;;5035788;28;20042;-74
2022/02/06 03:53:04;;;;;;;37.80;6.57;;;8.30;99.90;;;;;;5035771;28;20511;-74
2022/02/06 03:55:32;;;;;;;41.53;7.47;;;8.40;99.90;;;;;;5036892;28;20397;-74
2022/02/06 03:57:57;;;;;;;27.30;6.47;;;8.30;99.90;;;;;;5035988;28;20045;-74
2022/02/06 04:00:26;;;;;;;35.45;7.55;;;8.30;99.90;;;;;;5035948;28;20036;-74
2022/02/06 04:02:52;;;;;;;29.50;6.68;;;8.30;99.90;;;;;;5036723;28;20049;-74
2022/02/06 04:05:18;;;;;;;36.72;7.13;;;8.30;99.90;;;;;;5036694;28;20436;-74
2022/02/06 04:07:45;;;;;;;32.20;7.40;;;8.40;99.90;;;;;;5018226;28;20083;-74
2022/02/06 04:10:13;;;;;;;34.92;6.88;;;8.30;99.90;;;;;;5035507;28;20052;-74
2022/02/06 04:12:42;;;;;;;27.90;8.05;;;8.40;99.90;;;;;;5036501;28;20119;-74
2022/02/06 04:15:14;;;;;;;28.17;7.00;;;8.30;99.90;;;;;;5036373;28;20033;-74
2022/02/06 04:17:47;;;;;;;39.85;6.88;;;8.40;99.90;;;;;;5035939;28;20045;-74
2022/02/06 04:20:13;;;;;;;38.28;6.70;;;8.30;99.90;;;;;;5036389;28;20167;-74
2022/02/06 04:22:39;;;;;;;26.67;6.47;;;8.30;99.90;;;;;;5036295;28;20513;-74
2022/02/06 04:25:04;;;;;;;33.10;6.35;;;8.30;99.90;;;;;;5036591;28;20108;-73
2022/02/06 04:27:30;;;;;;;32.78;7.15;;;8.50;99.90;;;;;;5035614;28;20033;-73
2022/02/06 04:29:56;;;;;;;23.80;6.93;;;8.40;99.90;;;;;;5034583;28;20046;-74
2022/02/06 04:32:23;;;;;;;31.63;6.70;;;8.40;99.90;;;;;;5036356;28;20044;-74
2022/02/06 04:34:50;;;;;;;22.90;5.40;;;8.40;99.90;;;;;;5036198;28;20052;-74
2022/02/06 04:37:27;;;;;;;20.85;5.40;;;8.40;99.90;;;;;;5034382;28;20049;-74
2022/02/06 04:42:55;;;;;;;28.25;4.95;;;8.40;99.90;;;;;;5034435;28;20108;-74
2022/02/06 04:53:09;;;;;;;23.40;6.90;;;8.40;99.90;;;;;;5035464;28;20045;-74
2022/02/06 05:26:55;;;;;;;25.35;6.57;;;8.40;99.90;;;;;;5035071;28;20084;-75
2022/02/06 05:29:30;;;;;;;30.83;5.90;;;8.30;99.90;;;;;;5034995;28;20042;-75
2022/02/06 05:32:13;;;;;;;25.67;5.53;;;8.40;99.90;;;;;;5017133;28;20045;-74
2022/02/06 05:34:39;;;;;;;27.65;5.85;;;8.30;99.90;;;;;;5033487;28;20053;-75
2022/02/06 05:37:04;;;;;;;36.88;7.32;;;8.30;99.90;;;;;;5034438;28;20037;-75
2022/02/06 05:39:30;;;;;;;29.75;6.88;;;8.30;99.90;;;;;;5033398;28;20041;-74
2022/02/06 05:41:56;;;;;;;26.02;6.07;;;8.40;99.90;;;;;;5034821;28;20041;-74
2022/02/06 05:44:21;;;;;;;18.60;5.55;;;8.50;99.90;;;;;;5034539;28;20029;-74
2022/02/06 05:46:47;;;;;;;26.27;5.05;;;8.50;99.90;;;;;;5033301;28;20043;-74
2022/02/06 05:49:12;;;;;;;23.15;5.22;;;8.50;99.90;;;;;;5034412;28;20026;-74
2022/02/06 05:51:39;;;;;;;29.90;4.80;;;8.40;99.90;;;;;;5034416;28;20056;-74
2022/02/06 05:54:05;;;;;;;28.15;6.50;;;8.50;99.90;;;;;;5034229;28;20037;-74
2022/02/06 05:56:31;;;;;;;22.75;5.43;;;8.40;99.90;;;;;;5032828;28;20048;-74
2022/02/06 05:58:57;;;;;;;31.27;4.75;;;8.50;99.90;;;;;;5033995;28;20037;-74
2022/02/06 06:01:22;;;;;;;31.80;5.85;;;8.50;99.90;;;;;;5034029;28;20041;-74
2022/02/06 06:03:50;;;;;;;23.13;6.30;;;8.50;99.90;;;;;;5034387;28;20468;-74
2022/02/06 06:06:16;;;;;;;26.90;4.90;;;8.60;99.90;;;;;;5034301;28;20495;-73
2022/02/06 06:08:42;;;;;;;24.42;6.15;;;8.50;99.90;;;;;;5034008;28;20521;-74
2022/02/06 06:11:07;;;;;;;25.45;5.55;;;8.50;99.90;;;;;;5033959;28;20064;-74
2022/02/06 06:13:33;;;;;;;24.65;5.50;;;8.50;99.90;;;;;;5032783;28;20038;-74
2022/02/06 06:15:59;;;;;;;22.48;5.30;;;8.50;99.90;;;;;;5032632;28;20037;-74
2022/02/06 06:18:25;;;;;;;20.52;4.95;;;8.50;99.90;;;;;;5033427;28;20040;-74
2022/02/06 06:20:52;;;;;;;25.48;5.22;;;8.40;99.90;;;;;;5033639;28;20073;-73
2022/02/06 06:23:18;;;;;;;21.85;4.68;;;8.50;99.90;;;;;;5034122;28;20400;-74
2022/02/06 06:25:45;;;;;;;26.85;6.30;;;8.50;99.90;;;;;;5033842;28;20034;-74
2022/02/06 06:28:10;;;;;;;30.90;6.95;;;8.50;99.90;;;;;;5033270;28;20046;-74
2022/02/06 06:30:37;;;;;;;25.73;5.75;;;8.50;99.90;;;;;;5032272;28;20045;-74
2022/02/06 06:33:06;;;;;;;25.20;4.95;;;8.50;99.90;;;;;;5032007;28;20462;-74
2022/02/06 06:35:32;;;;;;;21.35;5.90;;;8.50;99.90;;;;;;5015979;28;20045;-73
2022/02/06 06:37:59;;;;;;;21.92;4.32;;;8.50;99.90;;;;;;5033184;28;20076;-74
2022/02/06 06:40:26;;;;;;;28.48;5.43;;;8.50;99.90;;;;;;5033672;28;20489;-74
2022/02/06 06:42:52;;;;;;;21.88;4.88;;;8.50;99.90;;;;;;5032097;28;20041;-74
2022/02/06 06:45:17;;;;;;;29.30;5.85;;;8.50;99.90;;;;;;5033551;28;20496;-74
2022/02/06 06:48:09;;;;;;;26.30;6.03;;;8.50;99.90;;;;;;5033275;28;20117;-74
2022/02/06 06:50:35;;;;;;;23.85;5.55;;;8.50;99.90;;;;;;5032232;28;20515;-73
2022/02/06 06:53:03;;;;;;;25.02;4.70;;;8.50;99.90;;;;;;5032747;28;20120;-74
2022/02/06 06:55:31;;;;;;;26.85;6.28;;;8.50;99.90;;;;;;5032662;28;20069;-74
2022/02/06 06:58:07;;;;;;;22.83;5.30;;;8.40;99.90;;;;;;5033232;28;20029;-73
2022/02/06 07:00:44;;;;;;;29.98;6.03;;;8.50;99.90;;;;;;5033741;28;20112;-73
2022/02/06 07:03:10;;;;;;;18.25;5.07;;;8.50;99.90;;;;;;5033264;28;20404;-73
2022/02/06 07:05:36;;;;;;;20.00;5.85;;;8.60;99.90;;;;;;5031868;28;20120;-73
2022/02/06 07:08:01;;;;;;;23.30;5.70;;;8.60;99.90;;;;;;5033017;28;20043;-73
2022/02/06 07:10:27;;;;;;;19.95;4.30;;;8.60;99.90;;;;;;5033329;28;20118;-74
2022/02/06 07:12:53;;;;;;;22.35;4.95;;;8.60;99.90;;;;;;5033404;28;20041;-74
2022/02/06 07:15:18;;;;;;;25.48;4.68;;;8.60;99.90;;;;;;5033510;28;20033;-74
2022/02/06 07:17:44;;;;;;;22.88;4.53;;;8.60;99.90;;;;;;5032849;28;20120;-74
2022/02/06 07:20:10;;;;;;;18.95;4.03;;;8.50;99.90;;;;;;5032911;28;20034;-73
2022/02/06 07:22:37;;;;;;;22.98;4.78;;;8.60;99.90;;;;;;5033672;28;20168;-74
2022/02/06 07:25:06;;;;;;;18.50;4.47;;;8.60;99.90;;;;;;5033319;28;20049;-73
2022/02/06 07:27:36;;;;;;;21.80;4.35;;;8.60;99.90;;;;;;5032938;28;20128;-74
2022/02/06 07:30:06;;;;;;;26.35;5.18;;;8.60;99.90;;;;;;5033129;28;20033;-73
2022/02/06 07:32:35;;;;;;;21.67;5.93;;;8.50;99.90;;;;;;5031926;28;20092;-74
2022/02/06 07:35:01;;;;;;;25.80;4.90;;;8.60;99.90;;;;;;5032335;28;20073;-73
2022/02/06 07:37:27;;;;;;;25.05;5.00;;;8.60;99.90;;;;;;5031354;28;20058;-74
2022/02/06 07:39:53;;;;;;;29.58;5.50;;;8.60;99.90;;;;;;5032696;28;20040;-73
2022/02/06 07:42:18;;;;;;;22.20;4.32;;;8.60;99.90;;;;;;5031475;28;20045;-75
2022/02/06 07:44:47;;;;;;;38.38;6.07;;;8.60;99.90;;;;;;5034919;28;20045;-73
2022/02/06 07:47:15;;;;;;;27.80;5.22;;;8.60;99.90;;;;;;5035966;28;20072;-73
2022/02/06 07:49:45;;;;;;;23.45;5.25;;;8.60;99.90;;;;;;5036091;28;20081;-73
2022/02/06 07:52:11;;;;;;;24.20;4.88;;;8.60;99.90;;;;;;5034886;28;20481;-73
2022/02/06 07:54:37;;;;;;;29.63;5.50;;;8.60;99.90;;;;;;5036127;28;20037;-72
2022/02/06 07:57:04;;;;;;;24.98;5.45;;;8.60;99.90;;;;;;5035541;28;20473;-73
2022/02/06 07:59:33;;;;;;;26.05;6.90;;;8.50;99.90;;;;;;5036850;28;20116;-73
2022/02/06 08:01:59;;;;;;;29.77;6.07;;;8.50;99.90;;;;;;5034614;28;20049;-73
2022/02/06 08:04:25;;;;;;;32.78;7.57;;;8.50;99.90;;;;;;5036257;28;20053;-72
2022/02/06 08:06:51;;;;;;;24.35;6.78;;;8.60;99.90;;;;;;5034418;28;20025;-73
2022/02/06 08:09:21;;;;;;;28.85;7.43;;;8.50;99.90;;;;;;5035663;28;20528;-73
2022/02/06 08:11:48;;;;;;;28.95;6.05;;;8.60;99.90;;;;;;5035842;28;20045;-73
2022/02/06 08:14:49;;;;;;;27.58;6.03;;;8.60;99.90;;;;;;5035866;28;20127;-73
2022/02/06 08:17:00;;;;;;;26.15;6.47;;;8.60;99.90;;;;;;5035976;28;20053;-73
2022/02/06 08:19:26;;;;;;;31.27;6.63;;;8.50;99.90;;;;;;5036118;28;20045;-73
2022/02/06 08:21:51;;;;;;;25.60;6.05;;;8.60;99.90;;;;;;5036075;28;20124;-73
2022/02/06 08:24:17;;;;;;;36.53;6.45;;;8.60;99.90;;;;;;5036393;28;20080;-73
2022/02/06 08:26:42;;;;;;;30.83;6.40;;;8.60;99.90;;;;;;5035857;28;20037;-76
2022/02/06 08:29:09;;;;;;;29.85;6.47;;;8.60;99.90;;;;;;5035511;28;20148;-74
2022/02/06 08:31:35;;;;;;;30.83;5.68;;;8.60;99.90;;;;;;5036209;28;20462;-74
2022/02/06 08:34:00;;;;;;;34.33;7.03;;;8.50;99.90;;;;;;5035976;28;20045;-74
2022/02/06 08:36:26;;;;;;;30.25;6.30;;;8.50;99.90;;;;;;5034768;28;20037;-75
2022/02/06 08:38:51;;;;;;;25.73;5.93;;;8.50;99.90;;;;;;5034454;28;20045;-74
2022/02/06 08:41:17;;;;;;;23.50;7.05;;;8.60;99.90;;;;;;5035496;28;20095;-74
2022/02/06 08:43:43;;;;;;;29.95;6.22;;;8.60;99.90;;;;;;5035746;28;20073;-75
2022/02/06 08:46:09;;;;;;;39.00;8.73;;;8.50;99.90;;;;;;5035584;28;20084;-75
2022/02/06 08:48:35;;;;;;;28.77;7.97;;;8.50;99.90;;;;;;5034206;28;20037;-75
2022/02/06 08:51:00;;;;;;;31.02;6.95;;;8.50;99.90;;;;;;5035690;28;20559;-75
2022/02/06 08:53:26;;;;;;;34.45;6.88;;;8.50;99.90;;;;;;5034215;28;20120;-74
2022/02/06 08:55:51;;;;;;;28.55;6.97;;;8.40;99.90;;;;;;5034018;28;20048;-75
2022/02/06 08:58:17;;;;;;;37.45;7.20;;;8.50;99.90;;;;;;5033235;28;20041;-75
2022/02/06 09:00:43;;;;;;;29.63;7.78;;;8.40;99.90;;;;;;5017670;28;20048;-75
2022/02/06 09:03:08;;;;;;;26.60;6.47;;;8.50;99.90;;;;;;5032616;28;20070;-74
2022/02/06 09:05:34;;;;;;;27.20;6.43;;;8.50;99.90;;;;;;5030887;28;20143;-73
2022/02/06 09:08:01;;;;;;;31.48;6.45;;;8.60;99.90;;;;;;5034336;28;20048;-76
2022/02/06 09:10:29;;;;;;;27.05;6.45;;;8.50;99.90;;;;;;5035705;28;20109;-75
2022/02/06 09:12:55;;;;;;;25.38;6.53;;;8.60;99.90;;;;;;5035245;28;20052;-75
2022/02/06 09:15:26;;;;;;;23.73;5.85;;;8.50;99.90;;;;;;5034302;28;20382;-75
2022/02/06 09:17:52;;;;;;;19.25;5.85;;;8.40;99.90;;;;;;5033536;28;20449;-74
2022/02/06 09:20:18;;;;;;;23.70;6.05;;;8.40;99.90;;;;;;5020678;28;20069;-74
2022/02/06 09:22:44;;;;;;;19.80;5.45;;;8.40;99.90;;;;;;5035169;28;20481;-75
2022/02/06 09:25:11;;;;;;;26.88;5.53;;;8.50;99.90;;;;;;5034168;28;20041;-75
2022/02/06 09:27:41;;;;;;;22.40;6.50;;;8.60;99.90;;;;;;5034713;28;20120;-75
2022/02/06 09:30:09;;;;;;;20.55;5.60;;;8.60;99.90;;;;;;5003096;28;20044;-75
2022/02/06 09:37:29;;;;;;;18.75;4.38;;;8.60;99.90;;;;;;5034249;28;20565;-74
2022/02/06 09:39:54;;;;;;;12.55;3.63;;;8.60;99.90;;;;;;5023562;28;20116;-74
2022/02/06 09:42:21;;;;;;;14.23;3.22;;;8.70;99.90;;;;;;5030699;28;20045;-74
2022/02/06 09:44:48;;;;;;;13.30;2.90;;;8.70;99.90;;;;;;5034548;28;20065;-75
2022/02/06 09:47:25;;;;;;;16.52;3.40;;;8.70;99.90;;;;;;5032901;28;20041;-75
2022/02/06 09:49:52;;;;;;;11.02;3.08;;;8.60;99.90;;;;;;5034660;28;20491;-75
2022/02/06 09:52:25;;;;;;;15.82;3.33;;;8.50;99.90;;;;;;5033377;28;20041;-75
2022/02/06 09:54:51;;;;;;;16.08;3.70;;;8.50;99.90;;;;;;5034366;28;20087;-75
2022/02/06 09:57:26;;;;;;;21.30;3.65;;;8.50;99.90;;;;;;5034400;28;20052;-76
2022/02/06 09:59:54;;;;;;;18.40;3.80;;;8.50;99.90;;;;;;5033724;28;20084;-75
2022/02/06 10:02:24;;;;;;;12.52;2.55;;;8.50;99.90;;;;;;5034881;28;20116;-75
2022/02/06 10:04:51;;;;;;;11.40;3.25;;;8.50;99.90;;;;;;5034501;28;20537;-75
2022/02/06 10:07:28;;;;;;;15.93;2.83;;;8.50;99.90;;;;;;5031799;28;20045;-76
2022/02/06 10:09:57;;;;;;;7.13;3.20;;;8.50;99.90;;;;;;5032906;28;20041;-75
2022/02/06 10:12:24;;;;;;;12.50;2.90;;;8.70;99.90;;;;;;5033968;28;20045;-75
2022/02/06 10:14:51;;;;;;;11.20;2.35;;;8.60;99.90;;;;;;5033912;28;20116;-75
2022/02/06 10:17:18;;;;;;;15.68;3.00;;;8.60;99.90;;;;;;5033238;28;20080;-75
2022/02/06 10:19:55;;;;;;;12.55;3.03;;;8.70;99.90;;;;;;5033975;28;20048;-76
2022/02/06 10:22:30;;;;;;;13.32;3.15;;;8.60;99.90;;;;;;5016324;28;20072;-75
2022/02/06 10:25:02;;;;;;;15.20;3.28;;;8.60;99.90;;;;;;5016266;28;20477;-76
2022/02/06 10:30:38;;;;;;;15.05;3.60;;;8.60;99.90;;;;;;5033500;28;20045;-75
2022/02/06 10:33:09;;;;;;;17.58;3.10;;;8.60;99.90;;;;;;5028352;28;20078;-75
2022/02/06 10:35:36;;;;;;;11.35;2.85;;;8.60;99.90;;;;;;5013213;28;20045;-75
2022/02/06 10:38:16;;;;;;;10.82;2.50;;;8.50;99.90;;;;;;5019754;28;20069;-75
2022/02/06 10:41:00;;;;;;;3.75;1.33;;;8.70;99.90;;;;;;5034218;28;20506;-80
2022/02/06 10:43:26;;;;;;;4.68;0.80;;;8.50;99.90;;;;;;5033792;28;20383;-74
2022/02/06 10:46:11;;;;;;;6.03;1.20;;;8.30;99.90;;;;;;5032269;28;20037;-75
2022/02/06 10:48:51;;;;;;;2.40;0.73;;;8.10;99.90;;;;;;5013347;28;20425;-75
2022/02/06 10:51:36;;;;;;;5.55;0.57;;;7.90;99.90;;;;;;5013718;28;20045;-76
2022/02/06 10:54:03;;;;;;;4.15;0.60;;;7.60;99.90;;;;;;5013987;28;20044;-75
2022/02/06 10:56:29;;;;;;;7.45;1.02;;;7.60;99.90;;;;;;5012616;28;20081;-75
2022/02/06 10:59:00;;;;;;;4.30;1.33;;;7.50;99.90;;;;;;5011891;28;20492;-75
2022/02/06 11:01:28;;;;;;;2.83;0.60;;;7.40;99.90;;;;;;5013619;28;20125;-74
2022/02/06 11:04:31;;;;;;;7.53;0.90;;;7.40;99.90;;;;;;5013919;28;20045;-74
2022/02/06 11:07:16;;;;;;;2.88;0.60;;;7.40;99.90;;;;;;5013573;28;20041;-75
2022/02/06 11:09:42;;;;;;;3.30;0.70;;;7.30;99.90;;;;;;5013619;28;20038;-75
2022/02/06 11:12:17;;;;;;;1.95;0.70;;;7.10;99.90;;;;;;4996827;28;20057;-74
2022/02/06 11:14:47;;;;;;;5.05;0.82;;;7.00;99.90;;;;;;5013337;28;20109;-75
2022/02/06 11:17:20;;;;;;;3.65;0.80;;;6.90;99.90;;;;;;5025697;28;20041;-75
2022/02/06 11:20:06;;;;;;;;;;;6.90;99.90;;;;;;5029201;28;20034;-77
2022/02/06 11:22:32;;;;;;;5.43;0.70;;;6.90;99.90;;;;;;5025120;28;20004;-74
2022/02/06 11:24:59;;;;;;;6.32;0.63;;;6.80;99.90;;;;;;5036729;28;20125;-75
2022/02/06 11:27:26;;;;;;;3.75;0.75;;;6.80;99.90;;;;;;5037038;28;20045;-73
2022/02/06 11:29:54;;;;;;;10.07;1.63;;;6.90;99.90;;;;;;5018925;28;20045;-74
2022/02/06 11:32:20;;;;;;;9.52;0.95;;;6.90;99.90;;;;;;5019121;28;20041;-76
2022/02/06 11:34:45;;;;;;;6.50;0.70;;;6.70;99.90;;;;;;5036983;28;20114;-77
2022/02/06 11:43:55;;;;;;;7.18;0.80;;;6.80;99.90;;;;;;5035391;28;20041;-75
2022/02/06 11:46:43;;;;;;;3.33;0.60;;;6.80;99.90;;;;;;4999383;28;20044;-75
2022/02/06 11:49:14;;;;;;;5.07;0.65;;;6.70;99.90;;;;;;5034857;28;20084;-75
2022/02/06 11:51:53;;;;;;;1.60;0.50;;;6.70;99.90;;;;;;5036678;28;20111;-76
2022/02/06 11:54:43;;;;;;;5.78;0.98;;;6.70;99.90;;;;;;5036570;28;20120;-75
2022/02/06 11:57:23;;;;;;;2.25;0.60;;;6.70;99.90;;;;;;5034950;28;20401;-75
2022/02/06 12:00:06;;;;;;;3.42;0.73;;;6.70;99.90;;;;;;5035187;28;20496;-76
2022/02/06 12:02:36;;;;;;;2.60;0.40;;;6.70;99.90;;;;;;5036364;28;20045;-75
2022/02/06 12:05:27;;;;;;;1.77;0.40;;;6.70;99.90;;;;;;5036597;28;20099;-77
2022/02/06 12:07:52;;;;;;;4.53;0.60;;;6.70;99.90;;;;;;5018270;28;20100;-76
2022/02/06 12:10:51;;;;;;;3.08;0.90;;;6.70;99.90;;;;;;5021948;28;20069;-75
2022/02/06 12:15:54;;;;;;;5.28;0.82;;;6.70;99.90;;;;;;5035843;28;20040;-75
2022/02/06 12:18:34;;;;;;;4.30;0.57;;;6.60;99.90;;;;;;5034431;28;20168;-74
2022/02/06 12:21:22;;;;;;;3.33;0.40;;;6.80;99.90;;;;;;5035979;28;20041;-75
2022/02/06 12:23:55;;;;;;;6.55;0.77;;;6.70;99.90;;;;;;5036179;28;20045;-75
2022/02/06 12:26:27;;;;;;;2.30;0.57;;;6.70;99.90;;;;;;5034529;28;20045;-74
2022/02/06 12:28:59;;;;;;;4.03;1.55;;;6.80;99.90;;;;;;5035632;28;20056;-74
2022/02/06 12:31:28;;;;;;;5.35;0.80;;;6.80;99.90;;;;;;5021981;28;20073;-76
2022/02/06 12:34:10;;;;;;;0.98;0.50;;;6.70;99.90;;;;;;5033961;28;20405;-76
2022/02/06 12:37:07;;;;;;;4.20;0.80;;;6.70;99.90;;;;;;5034540;28;20050;-75
2022/02/06 12:39:35;;;;;;;1.85;0.60;;;6.70;99.90;;;;;;5006650;28;20083;-74
2022/02/06 12:42:03;;;;;;;4.68;0.85;;;6.80;99.90;;;;;;5032189;28;20038;-74
2022/02/06 12:44:30;;;;;;;3.60;0.77;;;6.80;99.90;;;;;;5034000;28;20046;-74
2022/02/06 12:46:59;;;;;;;8.95;1.20;;;6.80;99.90;;;;;;5021526;28;20041;-73
2022/02/06 12:49:30;;;;;;;8.68;1.10;;;6.90;99.90;;;;;;5035209;28;20474;-74
2022/02/06 12:51:57;;;;;;;4.80;1.30;;;6.80;99.90;;;;;;5035625;28;20069;-73
2022/02/06 12:54:23;;;;;;;4.30;1.20;;;6.90;99.90;;;;;;5035488;28;20041;-74
2022/02/06 12:56:53;;;;;;;7.35;1.10;;;7.00;99.90;;;;;;5031676;28;20128;-73
2022/02/06 12:59:22;;;;;;;7.30;0.90;;;7.00;99.90;;;;;;5034336;28;20037;-73
2022/02/06 13:01:49;;;;;;;8.10;0.98;;;7.10;99.90;;;;;;5033946;28;20049;-73
2022/02/06 13:04:22;;;;;;;8.38;1.08;;;7.10;99.90;;;;;;5034868;28;20387;-73
2022/02/06 13:06:51;;;;;;;8.32;1.20;;;7.10;99.90;;;;;;5035404;28;20037;-73
2022/02/06 13:09:28;;;;;;;10.15;1.40;;;7.10;99.90;;;;;;5033404;28;20045;-73
2022/02/06 13:12:03;;;;;;;14.43;1.92;;;7.20;99.90;;;;;;5034083;28;20447;-73
2022/02/06 13:38:38;;;;;;;8.95;2.15;;;7.40;99.90;;;;;;5033178;28;20446;-73
2022/02/06 13:41:17;;;;;;;9.02;2.13;;;7.50;99.90;;;;;;5034503;28;20079;-73
2022/02/06 13:43:43;;;;;;;10.93;2.50;;;7.40;99.90;;;;;;5033783;28;20042;-75
2022/02/06 13:46:16;;;;;;;13.30;2.10;;;7.50;99.90;;;;;;5034338;28;20096;-70
2022/02/06 13:48:46;;;;;;;8.00;2.17;;;7.50;99.90;;;;;;5033658;28;20041;-73
2022/02/06 13:51:12;;;;;;;13.07;2.40;;;7.50;99.90;;;;;;5033461;28;20041;-72
2022/02/06 13:53:37;;;;;;;12.30;2.53;;;7.50;99.90;;;;;;5034863;28;20037;-74
2022/02/06 13:56:07;;;;;;;7.40;2.70;;;7.60;99.90;;;;;;5033722;28;20033;-73
2022/02/06 13:58:34;;;;;;;8.27;2.63;;;7.70;99.90;;;;;;5032575;28;20564;-73
2022/02/06 14:01:08;;;;;;;10.00;2.00;;;7.80;99.90;;;;;;5033567;28;20042;-73
2022/02/06 14:03:44;;;;;;;10.20;1.75;;;7.80;99.90;;;;;;5033629;28;20053;-73
2022/02/06 14:06:16;;;;;;;7.82;1.67;;;8.00;99.90;;;;;;5033930;28;20401;-73
2022/02/06 14:09:25;;;;;;;14.50;2.03;;;8.00;99.90;;;;;;5030045;28;20092;-72
2022/02/06 14:12:03;;;;;;;10.45;1.98;;;8.00;99.90;;;;;;5023142;28;20063;-72
2022/02/06 14:14:31;;;;;;;6.40;1.70;;;8.10;99.90;;;;;;5032309;28;20389;-74
2022/02/06 14:16:58;;;;;;;7.97;1.95;;;8.00;99.90;;;;;;5033302;28;20400;-73
2022/02/06 14:19:44;;;;;;;8.60;2.10;;;8.10;99.90;;;;;;5032980;28;20164;-72
2022/02/06 14:22:14;;;;;;;12.00;2.63;;;8.10;99.90;;;;;;5032293;28;20607;-73
2022/02/06 14:24:50;;;;;;;10.18;1.73;;;8.30;99.90;;;;;;5034191;28;20053;-73
2022/02/06 14:27:32;;;;;;;12.80;2.40;;;8.20;99.90;;;;;;5033027;28;20068;-73
2022/02/06 14:30:09;;;;;;;7.97;1.90;;;8.20;99.90;;;;;;5030587;28;20037;-73
2022/02/06 14:32:35;;;;;;;12.38;1.95;;;8.10;99.90;;;;;;5033069;28;20397;-72
2022/02/06 14:35:13;;;;;;;8.15;2.25;;;8.10;99.90;;;;;;5033501;28;20041;-73
2022/02/06 14:37:45;;;;;;;15.07;3.20;;;8.20;99.90;;;;;;5033662;28;20045;-71
2022/02/06 14:42:38;;;;;;;6.00;2.10;;;8.10;99.90;;;;;;5033677;28;20175;-73
2022/02/06 14:45:11;;;;;;;8.88;1.98;;;8.10;99.90;;;;;;5033724;28;20500;-72
2022/02/06 14:47:36;;;;;;;9.80;2.50;;;8.10;99.90;;;;;;5033539;28;20428;-75
2022/02/06 14:50:12;;;;;;;6.03;2.03;;;8.10;99.90;;;;;;5033918;28;20041;-73
2022/02/06 14:52:37;;;;;;;12.68;2.90;;;8.00;99.90;;;;;;5034097;28;20389;-73
2022/02/06 14:55:03;;;;;;;12.75;2.45;;;8.00;99.90;;;;;;5033129;28;20045;-73
2022/02/06 14:57:29;;;;;;;9.90;2.10;;;8.00;99.90;;;;;;5033382;28;20041;-74
2022/02/06 14:59:54;;;;;;;8.50;2.53;;;8.00;99.90;;;;;;5033510;28;20489;-73
2022/02/06 15:02:20;;;;;;;9.55;2.53;;;8.00;99.90;;;;;;5032570;28;20085;-72
2022/02/06 15:04:45;;;;;;;14.73;2.58;;;7.90;99.90;;;;;;5033888;28;20041;-73
2022/02/06 15:07:11;;;;;;;11.68;4.03;;;7.90;99.90;;;;;;5031927;28;20048;-73
2022/02/06 15:09:37;;;;;;;10.80;2.35;;;7.80;99.90;;;;;;5033366;28;20029;-73
2022/02/06 15:12:02;;;;;;;10.88;2.33;;;7.60;99.90;;;;;;5033088;28;20037;-75
2022/02/06 15:14:28;;;;;;;4.93;0.73;;;7.50;99.90;;;;;;5032789;28;20061;-72
2022/02/06 15:16:58;;;;;;;3.75;0.85;;;6.80;99.90;;;;;;5029763;28;20432;-73
2022/02/06 15:19:29;;;;;;;1.55;0.68;;;6.50;99.90;;;;;;5024652;28;20112;-73
2022/02/06 15:21:57;;;;;;;5.75;0.90;;;5.90;99.90;;;;;;5032274;28;20490;-74
2022/02/06 15:24:23;;;;;;;4.97;0.80;;;5.90;99.90;;;;;;5027355;28;20121;-74
2022/02/06 15:26:49;;;;;;;7.85;1.10;;;5.60;99.90;;;;;;5032234;28;20202;-73
2022/02/06 15:29:14;;;;;;;2.15;0.50;;;5.50;99.90;;;;;;5020701;28;20073;-73
2022/02/06 15:31:40;;;;;;;4.47;0.70;;;5.50;99.90;;;;;;5030616;28;20366;-73
2022/02/06 15:34:07;;;;;;;4.47;0.65;;;5.50;99.90;;;;;;5033018;28;20042;-73
2022/02/06 15:36:35;;;;;;;3.70;1.15;;;5.40;99.90;;;;;;5033186;28;20056;-74
2022/02/06 15:39:01;;;;;;;5.78;0.70;;;5.40;99.90;;;;;;5032968;28;20046;-74
2022/02/06 15:41:27;;;;;;;2.55;0.60;;;5.40;99.90;;;;;;5015363;28;20052;-73
2022/02/06 15:43:52;;;;;;;1.83;0.38;;;5.30;99.90;;;;;;5032897;28;20048;-74
2022/02/06 15:46:18;;;;;;;2.28;0.50;;;5.40;99.90;;;;;;5031729;28;20037;-74